Veidnes — LLSD — position and weather

sailwx.info

Track history (hours):
 
Tides and Currents Weather Stations Pressure Air Temp Water Temp Dewpoint Dewpoint Depression Visibility Wind Speed Wind Dir Waves Ship Positions

Veidnes

Last reported at 2015-Jul-06 16:26 UTC. Time now 2015-Jul-07 06:52 UTC.
Position N 67°38' E 014°58'.

Length 50 m; draft 5 m.

Type: Cargo ship. MMSI: 259237000.

Date/timePositionNaut miles runAvg speedWind from/ knotsBaromVisibWave heightAir tempDewpointWater temp
2015-Jul-06 16:26N 67°38' E 014°58'4 4.4
2015-Jul-06 15:33N 67°39' E 015°07'0 0.0
2015-Jul-06 14:33N 67°39' E 015°07'3 2.5
2015-Jul-06 13:33N 67°38' E 015°02'9 0.4
2015-Jul-05 18:07N 67°42' E 014°42'4 7.7
2015-Jul-05 17:32N 67°39' E 014°49'1 0.4
2015-Jul-05 14:12N 67°39' E 014°52'6 9.2
2015-Jul-05 13:33N 67°42' E 014°39'11 8.3
2015-Jul-05 12:16N 67°52' E 014°43'16 0.9
2015-Jul-04 18:20N 67°38' E 015°00'  
2015-Jun-28 11:24N 67°39' E 014°50'7 8.9
2015-Jun-28 10:33N 67°42' E 015°08'  
Track history (hours):
 
Tides and Currents Weather Stations Pressure Air Temp Water Temp Dewpoint Dewpoint Depression Visibility Wind Speed Wind Dir Waves Ship Positions

Veidnes

Last reported at 2015-Jul-06 16:26 UTC. Time now 2015-Jul-07 06:52 UTC.
Position N 67°38' E 014°58'.

Length 50 m; draft 5 m.

Type: Cargo ship. MMSI: 259237000.

Date/timePositionNaut miles runAvg speedWind from/ knotsBaromVisibWave heightAir tempDewpointWater temp
2015-Jul-06 16:26N 67°38' E 014°58'4 4.4
2015-Jul-06 15:33N 67°39' E 015°07'0 0.0
2015-Jul-06 14:33N 67°39' E 015°07'3 2.5
2015-Jul-06 13:33N 67°38' E 015°02'9 0.4
2015-Jul-05 18:07N 67°42' E 014°42'4 7.7
2015-Jul-05 17:32N 67°39' E 014°49'1 0.4
2015-Jul-05 14:12N 67°39' E 014°52'6 9.2
2015-Jul-05 13:33N 67°42' E 014°39'11 8.3
2015-Jul-05 12:16N 67°52' E 014°43'16 0.9
2015-Jul-04 18:20N 67°38' E 015°00'  
2015-Jun-28 11:24N 67°39' E 014°50'7 8.9
2015-Jun-28 10:33N 67°42' E 015°08'  

Dump ship's entire track history